Urb San Rafael Est, Puerto Rico
Current Conditions -  °F | °C
As of 9:56 AM on Friday 24 Oct 2014 (Local Time) from TJSJ Reporting Station
Scattered Clouds Scattered Clouds  
Wind Chill: 88°   Ceiling: Unl
Heat Index: 99°   Visibility: 10mi
Dew Point: 76°   Wind: 3mph
Humidity: 67%   Direction: 50°NE
Pressure: 29.96"   Gusts: NA
Location:  18.1781°N, 66.1167°W
Report Text: TJSJ 241356Z 05003KT 10SM FEW029 SCT075 31/24 A2996 RMK AO2 SLP144 T03110244
Loading
Personal Weather Stations






























Interactive Weather Map
Tropical Storm Tracking
New forecast layout! Learn more

10-Day Weather Forecast

Advertisements
Track Severe Weather on mobile